Time;durP1;ratioP1;P1;durP2;ratioP2;P2;SDS_P1;SDS_P2;PMS_P1;PMS_P2;Temp;Humidity;BMP_temperature;BMP_pressure;BME280_temperature;BME280_humidity;BME280_pressure;Samples;Min_cycle;Max_cycle;Signal;HPM_P1;HPM_P2
2022/12/11 00:02:17;;;;;;;25.23;11.82;;;0.30;99.90;;;;;;5058039;28;20036;-69
2022/12/11 00:04:43;;;;;;;25.50;12.07;;;0.40;99.90;;;;;;5057084;28;20075;-69
2022/12/11 00:07:08;;;;;;;24.50;10.90;;;0.30;99.90;;;;;;5057337;28;20037;-69
2022/12/11 00:09:34;;;;;;;26.25;11.55;;;0.40;99.90;;;;;;5073467;28;20040;-70
2022/12/11 00:12:01;;;;;;;26.30;11.77;;;0.40;99.90;;;;;;5074853;28;20113;-69
2022/12/11 00:14:27;;;;;;;26.95;11.75;;;0.40;99.90;;;;;;5074802;28;20071;-69
2022/12/11 00:16:53;;;;;;;23.38;11.57;;;0.30;99.90;;;;;;5030703;28;20079;-69
2022/12/11 00:19:18;;;;;;;28.42;12.10;;;0.20;99.90;;;;;;5057809;28;20401;-69
2022/12/11 00:21:44;;;;;;;25.67;11.80;;;0.30;99.90;;;;;;5067198;28;20041;-69
2022/12/11 00:24:09;;;;;;;26.95;11.95;;;0.30;99.90;;;;;;5058213;28;20044;-69
2022/12/11 00:26:35;;;;;;;28.35;12.13;;;0.30;99.90;;;;;;5054487;28;20029;-69
2022/12/11 00:29:01;;;;;;;28.50;12.60;;;0.30;99.90;;;;;;5042371;28;20076;-70
2022/12/11 00:31:26;;;;;;;26.80;12.00;;;0.30;99.90;;;;;;5057925;28;20036;-69
2022/12/11 00:33:52;;;;;;;31.75;14.10;;;0.30;99.90;;;;;;5074677;28;20041;-69
2022/12/11 00:36:21;;;;;;;31.25;13.00;;;0.30;99.90;;;;;;5056744;28;20045;-69
2022/12/11 00:38:48;;;;;;;31.60;15.05;;;0.30;99.90;;;;;;5051365;28;20037;-69
2022/12/11 00:41:13;;;;;;;29.20;14.07;;;0.30;99.90;;;;;;5030102;28;20037;-69
2022/12/11 00:43:40;;;;;;;31.08;13.52;;;0.30;99.90;;;;;;5054217;28;20370;-69
2022/12/11 00:46:06;;;;;;;32.38;14.73;;;0.30;99.90;;;;;;5046521;28;20051;-69
2022/12/11 00:48:31;;;;;;;29.35;12.43;;;0.30;99.90;;;;;;5074242;28;20123;-69
2022/12/11 00:50:57;;;;;;;27.20;11.60;;;0.40;99.90;;;;;;5057000;28;20071;-69
2022/12/11 00:53:22;;;;;;;26.20;11.15;;;0.40;99.90;;;;;;5072981;28;20048;-69
2022/12/11 00:55:48;;;;;;;27.20;12.20;;;0.50;99.90;;;;;;5072907;28;20069;-69
2022/12/11 00:58:14;;;;;;;34.17;13.32;;;0.50;99.90;;;;;;5073999;28;20492;-69
2022/12/11 01:00:41;;;;;;;30.65;13.30;;;0.50;99.90;;;;;;5072463;28;20064;-69
2022/12/11 01:03:07;;;;;;;28.38;12.45;;;0.50;99.90;;;;;;5073719;28;20036;-69
2022/12/11 01:05:33;;;;;;;30.95;12.13;;;0.40;99.90;;;;;;5055771;28;20040;-68
2022/12/11 01:07:59;;;;;;;30.27;12.52;;;0.40;99.90;;;;;;5073899;28;20040;-69
2022/12/11 01:10:24;;;;;;;29.83;13.13;;;0.40;99.90;;;;;;5073778;28;20040;-69
2022/12/11 01:12:56;;;;;;;29.77;12.75;;;0.40;99.90;;;;;;5056962;28;20046;-69
2022/12/11 01:15:24;;;;;;;28.85;13.35;;;0.40;99.90;;;;;;5054858;28;20087;-69
2022/12/11 01:17:50;;;;;;;30.65;12.52;;;0.40;99.90;;;;;;5073823;28;20033;-69
2022/12/11 01:20:16;;;;;;;33.10;13.32;;;0.40;99.90;;;;;;5074003;28;20036;-69
2022/12/11 01:22:42;;;;;;;32.55;12.85;;;0.40;99.90;;;;;;5073598;28;20047;-69
2022/12/11 01:25:09;;;;;;;31.38;13.32;;;0.40;99.90;;;;;;5071100;28;20397;-69
2022/12/11 01:27:35;;;;;;;27.75;11.98;;;0.50;99.90;;;;;;5071988;28;20036;-70
2022/12/11 01:30:01;;;;;;;28.75;12.95;;;0.40;99.90;;;;;;5072323;28;20041;-69
2022/12/11 01:32:27;;;;;;;29.42;12.63;;;0.60;99.90;;;;;;5073379;28;20128;-69
2022/12/11 01:34:53;;;;;;;30.85;13.15;;;0.60;99.90;;;;;;5056015;28;20092;-69
2022/12/11 01:37:19;;;;;;;32.67;15.23;;;0.60;99.90;;;;;;5072481;28;20037;-69
2022/12/11 01:39:44;;;;;;;29.80;12.57;;;0.60;99.90;;;;;;5073138;28;20037;-69
2022/12/11 01:42:17;;;;;;;29.20;12.65;;;0.60;99.90;;;;;;5072126;28;20036;-69
2022/12/11 01:44:42;;;;;;;;;;;0.60;99.90;;;;;;5056807;28;20037;-69
2022/12/11 01:47:08;;;;;;;28.50;12.30;;;0.60;99.90;;;;;;5054951;28;19924;-69
2022/12/11 01:49:34;;;;;;;32.53;13.70;;;0.60;99.90;;;;;;5056406;28;20488;-69
2022/12/11 01:52:10;;;;;;;36.88;13.82;;;0.60;99.90;;;;;;5054942;28;20036;-69
2022/12/11 01:54:36;;;;;;;31.55;13.90;;;0.60;99.90;;;;;;5056311;28;20127;-69
2022/12/11 01:57:04;;;;;;;36.47;14.70;;;0.60;99.90;;;;;;5036425;28;20446;-69
2022/12/11 01:59:33;;;;;;;33.17;14.00;;;0.50;99.90;;;;;;5032778;28;20076;-69
2022/12/11 02:02:06;;;;;;;33.80;12.55;;;0.60;99.90;;;;;;5031350;28;20041;-69
2022/12/11 02:04:32;;;;;;;33.20;15.38;;;0.60;99.90;;;;;;5032625;28;20383;-69
2022/12/11 02:06:58;;;;;;;32.55;14.73;;;0.60;99.90;;;;;;5068749;28;20587;-69
2022/12/11 02:09:30;;;;;;;35.70;13.88;;;0.60;99.90;;;;;;5056020;28;20123;-69
2022/12/11 02:12:14;;;;;;;;;;;0.60;99.90;;;;;;5070755;28;20056;-69
2022/12/11 02:14:58;;;;;;;31.33;13.02;;;0.60;99.90;;;;;;5072387;28;19916;-70
2022/12/11 02:17:40;;;;;;;32.20;12.82;;;0.60;99.90;;;;;;5032702;28;20049;-69
2022/12/11 02:20:17;;;;;;;38.57;13.90;;;0.60;99.90;;;;;;5063862;28;20086;-70
2022/12/11 02:22:53;;;;;;;33.88;13.35;;;0.60;99.90;;;;;;5072542;28;20072;-70
2022/12/11 02:25:39;;;;;;;31.77;13.85;;;0.60;99.90;;;;;;5047198;28;20040;-69
2022/12/11 02:28:42;;;;;;;32.85;13.32;;;0.60;99.90;;;;;;5016038;28;20049;-69
2022/12/11 02:31:31;;;;;;;35.35;13.98;;;0.60;99.90;;;;;;5035590;28;20080;-70
2022/12/11 02:34:29;;;;;;;32.63;13.70;;;0.60;99.90;;;;;;5055753;28;20070;-70
2022/12/11 02:37:00;;;;;;;33.88;13.68;;;0.60;99.90;;;;;;5070763;28;20036;-70
2022/12/11 02:39:27;;;;;;;33.83;14.13;;;0.60;99.90;;;;;;5072203;28;20051;-70
2022/12/11 02:41:55;;;;;;;31.98;13.57;;;0.70;99.90;;;;;;5071406;28;20040;-70
2022/12/11 02:44:25;;;;;;;34.45;14.52;;;0.70;99.90;;;;;;5072268;28;20495;-69
2022/12/11 02:46:51;;;;;;;34.97;13.90;;;0.70;99.90;;;;;;5070749;28;20037;-70
2022/12/11 02:49:19;;;;;;;31.77;13.85;;;0.70;99.90;;;;;;5072159;28;20032;-69
2022/12/11 02:51:45;;;;;;;34.13;13.60;;;0.60;99.90;;;;;;5071107;28;20054;-69
2022/12/11 02:54:25;;;;;;;33.08;12.75;;;0.70;99.90;;;;;;5055151;28;20544;-70
2022/12/11 02:57:01;;;;;;;33.50;13.68;;;0.70;99.90;;;;;;5070637;28;20043;-69
2022/12/11 02:59:38;;;;;;;31.63;14.63;;;0.80;99.90;;;;;;5055342;28;20079;-69
2022/12/11 03:02:04;;;;;;;33.30;14.00;;;0.80;99.90;;;;;;5070898;28;20055;-69
2022/12/11 03:04:31;;;;;;;34.03;14.05;;;0.70;99.90;;;;;;5055022;28;20086;-70
2022/12/11 03:07:01;;;;;;;30.13;12.73;;;0.70;99.90;;;;;;5053857;28;20404;-70
2022/12/11 03:09:27;;;;;;;33.72;12.52;;;0.70;99.90;;;;;;5053791;28;20094;-69
2022/12/11 03:11:53;;;;;;;35.55;14.00;;;0.70;99.90;;;;;;5055122;28;20036;-70
2022/12/11 03:14:19;;;;;;;31.63;13.27;;;0.70;99.90;;;;;;5075979;28;20428;-70
2022/12/11 03:17:08;;;;;;;29.38;12.13;;;0.70;99.90;;;;;;5056810;28;20058;-70
2022/12/11 03:19:40;;;;;;;34.88;13.30;;;0.70;99.90;;;;;;5074772;28;20041;-70
2022/12/11 03:22:15;;;;;;;29.13;12.07;;;0.70;99.90;;;;;;5075958;28;20083;-70
2022/12/11 03:24:50;;;;;;;33.67;13.07;;;0.70;99.90;;;;;;5076048;28;20431;-70
2022/12/11 03:27:43;;;;;;;34.72;13.20;;;0.70;99.90;;;;;;5056013;28;20036;-70
2022/12/11 03:30:13;;;;;;;32.88;12.60;;;0.70;99.90;;;;;;5075704;28;20123;-69
2022/12/11 03:32:52;;;;;;;31.73;12.93;;;0.70;99.90;;;;;;5075628;28;20036;-70
2022/12/11 03:35:24;;;;;;;35.95;13.98;;;0.80;99.90;;;;;;5055926;28;20107;-70
2022/12/11 03:37:51;;;;;;;;;;;0.80;99.90;;;;;;5076334;28;20424;-70
2022/12/11 03:40:20;;;;;;;33.13;13.07;;;0.80;99.90;;;;;;5075414;28;20381;-70
2022/12/11 03:42:50;;;;;;;34.40;13.20;;;0.90;99.90;;;;;;5059118;28;20458;-70
2022/12/11 03:45:18;;;;;;;31.98;13.38;;;0.90;99.90;;;;;;5074125;28;20408;-70
2022/12/11 03:47:45;;;;;;;32.58;13.25;;;1.00;99.90;;;;;;5075463;28;20050;-70
2022/12/11 03:50:14;;;;;;;35.65;13.38;;;0.90;99.90;;;;;;5057739;28;20056;-70
2022/12/11 03:52:41;;;;;;;33.03;12.63;;;0.90;99.90;;;;;;5073181;28;20062;-70
2022/12/11 03:55:09;;;;;;;33.85;12.80;;;0.90;99.90;;;;;;5057277;28;20048;-69
2022/12/11 03:57:36;;;;;;;28.27;11.15;;;0.90;99.90;;;;;;5058823;28;20506;-70
2022/12/11 04:00:08;;;;;;;31.77;13.38;;;0.90;99.90;;;;;;5073653;28;20045;-70
2022/12/11 04:02:34;;;;;;;32.05;12.23;;;0.90;99.90;;;;;;5075135;28;20044;-70
2022/12/11 04:04:59;;;;;;;27.92;11.55;;;1.00;99.90;;;;;;5073229;28;20420;-70
2022/12/11 04:07:25;;;;;;;29.20;11.65;;;0.90;99.90;;;;;;5074984;28;20045;-70
2022/12/11 04:09:51;;;;;;;32.20;11.85;;;0.90;99.90;;;;;;5058375;28;20495;-70
2022/12/11 04:12:16;;;;;;;32.17;12.55;;;0.90;99.90;;;;;;5071044;28;20488;-70
2022/12/11 04:25:40;;;;;;;30.95;13.68;;;0.90;99.90;;;;;;5071295;28;20060;-70
2022/12/11 04:28:05;;;;;;;33.17;12.90;;;0.90;99.90;;;;;;5073180;28;20048;-70
2022/12/11 04:30:31;;;;;;;33.67;13.07;;;0.90;99.90;;;;;;5073382;28;20089;-70
2022/12/11 04:32:57;;;;;;;34.92;12.90;;;0.90;99.90;;;;;;5074816;28;20036;-70
2022/12/11 04:35:22;;;;;;;31.55;11.80;;;0.90;99.90;;;;;;5072313;28;20045;-70
2022/12/11 04:37:49;;;;;;;32.75;12.57;;;1.00;99.90;;;;;;5073364;28;20036;-69
2022/12/11 04:40:17;;;;;;;34.35;12.85;;;1.00;99.90;;;;;;5074719;28;20107;-70
2022/12/11 04:42:43;;;;;;;30.80;13.20;;;1.00;99.90;;;;;;5057639;28;20115;-69
2022/12/11 04:45:09;;;;;;;35.35;14.45;;;1.00;99.90;;;;;;5055985;28;20148;-69
2022/12/11 04:47:37;;;;;;;32.45;14.10;;;1.00;99.90;;;;;;5057604;28;20033;-70
2022/12/11 04:50:04;;;;;;;35.40;13.13;;;1.00;99.90;;;;;;5055206;28;20102;-69
2022/12/11 04:52:30;;;;;;;35.60;12.75;;;1.00;99.90;;;;;;5073041;28;20044;-70
2022/12/11 04:54:55;;;;;;;35.60;13.43;;;1.00;99.90;;;;;;5072893;28;20037;-70
2022/12/11 04:57:21;;;;;;;30.90;12.40;;;1.10;99.90;;;;;;5073993;28;20497;-70
2022/12/11 04:59:47;;;;;;;33.78;13.00;;;1.10;99.90;;;;;;5073948;28;20048;-70
2022/12/11 05:02:15;;;;;;;33.53;14.30;;;1.10;99.90;;;;;;5071376;28;20041;-70
2022/12/11 05:04:41;;;;;;;35.50;14.10;;;1.10;99.90;;;;;;5056126;28;20076;-70
2022/12/11 05:07:08;;;;;;;30.27;14.23;;;1.00;99.90;;;;;;5054745;28;20039;-70
2022/12/11 05:09:34;;;;;;;34.33;14.15;;;1.00;99.90;;;;;;5074130;28;20378;-70
2022/12/11 05:12:00;;;;;;;37.65;15.00;;;1.00;99.90;;;;;;5073842;28;20090;-70
2022/12/11 05:14:26;;;;;;;31.38;12.82;;;1.00;99.90;;;;;;5057034;28;20052;-70
2022/12/11 05:16:52;;;;;;;38.78;13.73;;;1.10;99.90;;;;;;5054268;28;20044;-70
2022/12/11 05:19:17;;;;;;;33.42;13.38;;;1.10;99.90;;;;;;5072087;28;20053;-70
2022/12/11 05:21:43;;;;;;;37.33;14.80;;;1.00;99.90;;;;;;5073560;28;20086;-70
2022/12/11 05:24:09;;;;;;;35.03;13.23;;;1.10;99.90;;;;;;5055914;28;20127;-70
2022/12/11 05:26:34;;;;;;;33.75;13.75;;;1.00;99.90;;;;;;5054574;28;20107;-70
2022/12/11 05:29:00;;;;;;;34.67;13.95;;;1.00;99.90;;;;;;5056819;28;20519;-70
2022/12/11 05:31:26;;;;;;;34.38;13.00;;;1.00;99.90;;;;;;5072564;28;20044;-70
2022/12/11 05:33:52;;;;;;;34.22;12.75;;;1.00;99.90;;;;;;5056657;28;20040;-70
2022/12/11 05:36:20;;;;;;;32.85;13.10;;;1.00;99.90;;;;;;5055184;28;20044;-70
2022/12/11 05:38:46;;;;;;;30.63;12.48;;;1.00;99.90;;;;;;5056490;28;20130;-70
2022/12/11 05:41:17;;;;;;;33.13;13.15;;;1.00;99.90;;;;;;5072300;28;20037;-70
2022/12/11 05:43:42;;;;;;;35.97;13.60;;;1.00;99.90;;;;;;5073467;28;20044;-70
2022/12/11 05:46:20;;;;;;;34.97;13.55;;;1.00;99.90;;;;;;5055171;28;20510;-70
2022/12/11 05:48:49;;;;;;;34.05;13.18;;;1.10;99.90;;;;;;5073058;28;20044;-70
2022/12/11 05:51:15;;;;;;;35.83;13.23;;;1.10;99.90;;;;;;5056359;28;20047;-70
2022/12/11 05:53:42;;;;;;;33.28;13.55;;;1.10;99.90;;;;;;5056304;28;20123;-70
2022/12/11 05:56:20;;;;;;;35.60;14.52;;;1.00;99.90;;;;;;5055063;28;20048;-70
2022/12/11 05:58:46;;;;;;;31.83;12.70;;;1.00;99.90;;;;;;5072813;28;20033;-70
2022/12/11 06:01:24;;;;;;;30.50;12.23;;;1.10;99.90;;;;;;5072789;28;20037;-70
2022/12/11 06:03:51;;;;;;;34.20;13.60;;;1.10;99.90;;;;;;5071673;28;20504;-70
2022/12/11 06:06:17;;;;;;;34.05;12.43;;;1.10;99.90;;;;;;5053020;28;20043;-70
2022/12/11 06:08:42;;;;;;;32.05;13.10;;;1.10;99.90;;;;;;5071247;28;20036;-70
2022/12/11 06:11:10;;;;;;;30.98;13.23;;;1.00;99.90;;;;;;5072655;28;20044;-70
2022/12/11 06:13:36;;;;;;;33.08;12.57;;;1.00;99.90;;;;;;5072804;28;20040;-70
2022/12/11 06:16:03;;;;;;;30.80;13.13;;;1.00;99.90;;;;;;5071044;28;20127;-70
2022/12/11 06:18:29;;;;;;;27.05;11.18;;;0.90;99.90;;;;;;5056031;28;20051;-70
2022/12/11 06:20:55;;;;;;;31.92;11.80;;;1.00;99.90;;;;;;5071300;28;20093;-70
2022/12/11 06:23:21;;;;;;;34.72;12.75;;;1.00;99.90;;;;;;5056081;28;20037;-70
2022/12/11 06:25:46;;;;;;;30.08;11.65;;;1.00;99.90;;;;;;5052549;28;20033;-70
2022/12/11 06:28:12;;;;;;;31.92;12.25;;;1.00;99.90;;;;;;5054525;28;20040;-70
2022/12/11 06:30:37;;;;;;;33.13;13.25;;;1.10;99.90;;;;;;5072210;28;20048;-70
2022/12/11 06:33:03;;;;;;;31.92;12.35;;;1.00;99.90;;;;;;5055978;28;20040;-70
2022/12/11 06:35:29;;;;;;;31.85;12.43;;;1.00;99.90;;;;;;5070664;28;20484;-70
2022/12/11 06:37:55;;;;;;;33.03;13.55;;;1.00;99.90;;;;;;5072322;28;20032;-70
2022/12/11 06:40:21;;;;;;;32.10;12.25;;;1.00;99.90;;;;;;5071385;28;20059;-70
2022/12/11 06:42:46;;;;;;;33.92;12.07;;;1.00;99.90;;;;;;5072242;28;20496;-70
2022/12/11 06:45:12;;;;;;;32.97;12.85;;;1.20;99.90;;;;;;5069220;28;20032;-70
2022/12/11 06:47:39;;;;;;;31.90;13.20;;;1.30;99.90;;;;;;5052438;28;20043;-70
2022/12/11 06:50:05;;;;;;;31.58;12.65;;;1.30;99.90;;;;;;5053762;28;20086;-69
2022/12/11 06:52:30;;;;;;;32.28;12.20;;;1.40;99.90;;;;;;5071987;28;20079;-69
2022/12/11 06:54:56;;;;;;;31.10;13.05;;;1.40;99.90;;;;;;5052297;28;20036;-69
2022/12/11 06:57:21;;;;;;;34.20;13.25;;;1.40;99.90;;;;;;5054150;28;20045;-69
2022/12/11 06:59:47;;;;;;;30.70;12.25;;;1.30;99.90;;;;;;5052662;28;20451;-69
2022/12/11 07:02:18;;;;;;;34.00;11.40;;;1.40;99.90;;;;;;5069266;28;20037;-69
2022/12/11 07:04:43;;;;;;;32.20;13.05;;;1.40;99.90;;;;;;5051307;28;20453;-70
2022/12/11 07:07:10;;;;;;;34.40;12.38;;;1.40;99.90;;;;;;5065077;28;20124;-70
2022/12/11 07:09:38;;;;;;;33.00;12.90;;;1.40;99.90;;;;;;5055473;28;20083;-69
2022/12/11 07:12:05;;;;;;;29.98;12.77;;;1.30;99.90;;;;;;5055511;28;20040;-70
2022/12/11 07:14:31;;;;;;;31.02;12.43;;;1.20;99.90;;;;;;5069279;28;20048;-70
2022/12/11 07:16:57;;;;;;;30.08;12.40;;;1.20;99.90;;;;;;5027766;28;20083;-70
2022/12/11 07:19:23;;;;;;;31.27;12.07;;;1.20;99.90;;;;;;5020514;28;20041;-70
2022/12/11 07:21:49;;;;;;;36.08;12.68;;;1.20;99.90;;;;;;5046985;28;20112;-69
2022/12/11 07:24:14;;;;;;;30.88;13.18;;;1.20;99.90;;;;;;5064097;28;20112;-69
2022/12/11 07:26:40;;;;;;;32.67;13.30;;;1.20;99.90;;;;;;5051783;28;20095;-69
2022/12/11 07:29:06;;;;;;;33.22;13.18;;;1.20;99.90;;;;;;5051461;28;20041;-69
2022/12/11 07:31:31;;;;;;;31.83;12.55;;;1.30;99.90;;;;;;5040476;28;20080;-69
2022/12/11 07:34:00;;;;;;;32.15;12.43;;;1.30;99.90;;;;;;5066900;28;20044;-69
2022/12/11 07:36:27;;;;;;;32.00;13.48;;;1.20;99.90;;;;;;5034285;28;20033;-69
2022/12/11 07:38:53;;;;;;;33.53;12.75;;;1.20;99.90;;;;;;5026250;28;20044;-69
2022/12/11 07:41:20;;;;;;;30.80;11.93;;;1.20;99.90;;;;;;5029639;28;20048;-69
2022/12/11 07:43:45;;;;;;;30.30;12.77;;;1.20;99.90;;;;;;5049780;28;20033;-69
2022/12/11 07:46:17;;;;;;;30.08;12.50;;;1.20;99.90;;;;;;5051704;28;20426;-69
2022/12/11 07:48:44;;;;;;;28.33;11.57;;;1.40;99.90;;;;;;5046926;28;20079;-69
2022/12/11 07:51:11;;;;;;;29.17;11.68;;;1.40;99.90;;;;;;5034943;28;20507;-68
2022/12/11 07:53:37;;;;;;;30.23;11.30;;;1.40;99.90;;;;;;5034415;28;20048;-69
2022/12/11 07:56:03;;;;;;;30.70;11.02;;;1.40;99.90;;;;;;5038443;28;20046;-68
2022/12/11 07:58:29;;;;;;;35.95;12.15;;;1.50;99.90;;;;;;5048924;28;20040;-69
2022/12/11 08:00:54;;;;;;;26.95;11.07;;;1.50;99.90;;;;;;5021149;28;20099;-69
2022/12/11 08:03:20;;;;;;;29.08;11.65;;;1.40;99.90;;;;;;5053539;28;20037;-68
2022/12/11 08:05:49;;;;;;;30.52;13.20;;;1.40;99.90;;;;;;5060294;28;20044;-69
2022/12/11 08:08:15;;;;;;;25.98;11.32;;;1.40;99.90;;;;;;5057749;28;20124;-69
2022/12/11 08:10:41;;;;;;;28.88;11.43;;;1.50;99.90;;;;;;5020841;28;20041;-68
2022/12/11 08:13:07;;;;;;;32.15;11.73;;;1.50;99.90;;;;;;5034685;28;20041;-68
2022/12/11 08:15:34;;;;;;;25.85;9.43;;;1.50;99.90;;;;;;5027792;28;20503;-68
2022/12/11 08:17:59;;;;;;;28.35;11.55;;;1.50;99.90;;;;;;5073549;28;20040;-69
2022/12/11 08:20:25;;;;;;;29.88;12.60;;;1.40;99.90;;;;;;5056082;28;20086;-69
2022/12/11 08:22:50;;;;;;;33.00;13.88;;;1.30;99.90;;;;;;5057511;28;20085;-69
2022/12/11 08:25:16;;;;;;;32.58;11.25;;;1.40;99.90;;;;;;5065621;28;20028;-68
2022/12/11 08:27:41;;;;;;;21.42;8.13;;;1.40;99.90;;;;;;5057892;28;20040;-68
2022/12/11 08:30:08;;;;;;;33.47;13.18;;;1.50;99.90;;;;;;5030315;28;20413;-68
2022/12/11 08:32:34;;;;;;;28.08;10.48;;;1.40;99.90;;;;;;5059782;28;20040;-70
2022/12/11 08:35:00;;;;;;;33.50;12.48;;;1.40;99.90;;;;;;5055765;28;20447;-69
2022/12/11 08:37:25;;;;;;;35.88;14.32;;;1.40;99.90;;;;;;5027136;28;20091;-70
2022/12/11 08:39:51;;;;;;;28.60;11.60;;;1.40;99.90;;;;;;5046484;28;20047;-70
2022/12/11 08:42:16;;;;;;;33.28;11.93;;;1.50;99.90;;;;;;5060402;28;20456;-70
2022/12/11 08:44:42;;;;;;;30.60;12.88;;;1.40;99.90;;;;;;5074184;28;20044;-70
2022/12/11 08:47:10;;;;;;;31.70;13.05;;;1.40;99.90;;;;;;5069767;28;20499;-69
2022/12/11 08:49:36;;;;;;;31.50;12.60;;;1.40;99.90;;;;;;5055782;28;20036;-70
2022/12/11 08:52:03;;;;;;;29.85;12.88;;;1.50;99.90;;;;;;5060565;28;20094;-70
2022/12/11 08:54:29;;;;;;;26.70;10.68;;;1.40;99.90;;;;;;5036384;28;20409;-69
2022/12/11 08:56:55;;;;;;;34.65;13.25;;;1.40;99.90;;;;;;5043576;28;20091;-70
2022/12/11 08:59:21;;;;;;;29.90;12.80;;;1.40;99.90;;;;;;5025270;28;20069;-70
2022/12/11 09:01:46;;;;;;;36.85;14.15;;;1.50;99.90;;;;;;5017281;28;20033;-69
2022/12/11 09:04:13;;;;;;;31.10;12.23;;;1.40;99.90;;;;;;5034793;28;20124;-69
2022/12/11 09:06:38;;;;;;;32.25;13.10;;;1.30;99.90;;;;;;5037687;28;20099;-70
2022/12/11 09:09:04;;;;;;;29.50;12.63;;;1.40;99.90;;;;;;5053291;28;20501;-70
2022/12/11 09:11:33;;;;;;;33.10;13.23;;;1.30;99.90;;;;;;5052898;28;20041;-70
2022/12/11 09:13:59;;;;;;;32.13;13.05;;;1.40;99.90;;;;;;5053580;28;20040;-69
2022/12/11 09:16:26;;;;;;;31.40;12.23;;;1.40;99.90;;;;;;5036395;28;20076;-69
2022/12/11 09:18:55;;;;;;;30.52;12.88;;;1.40;99.90;;;;;;5036454;28;20044;-69
2022/12/11 09:21:24;;;;;;;33.75;13.20;;;1.40;99.90;;;;;;5036785;28;20041;-69
2022/12/11 09:23:55;;;;;;;29.25;12.77;;;1.40;99.90;;;;;;5053613;28;20557;-69
2022/12/11 09:26:21;;;;;;;36.72;14.40;;;1.40;99.90;;;;;;5053512;28;20037;-69
2022/12/11 09:28:47;;;;;;;32.80;13.65;;;1.40;99.90;;;;;;5053027;28;20041;-69
2022/12/11 09:31:19;;;;;;;30.02;12.38;;;1.30;99.90;;;;;;5053259;28;20037;-70
2022/12/11 09:33:45;;;;;;;30.38;12.57;;;1.50;99.90;;;;;;5053163;28;20037;-69
2022/12/11 09:36:11;;;;;;;32.17;13.32;;;1.50;99.90;;;;;;5036362;28;20036;-69
2022/12/11 09:38:37;;;;;;;32.15;11.70;;;1.40;99.90;;;;;;5053170;28;20186;-70
2022/12/11 09:41:21;;;;;;;31.65;12.70;;;1.50;99.90;;;;;;5036485;28;20041;-69
2022/12/11 09:44:14;;;;;;;29.08;12.38;;;1.60;99.90;;;;;;5052743;28;20048;-69
2022/12/11 09:46:41;;;;;;;31.77;14.07;;;1.60;99.90;;;;;;5053057;28;20040;-69
2022/12/11 09:49:34;;;;;;;30.52;12.43;;;1.60;99.90;;;;;;5035953;28;20448;-69
2022/12/11 09:52:09;;;;;;;33.13;13.82;;;1.50;99.90;;;;;;5052786;28;20051;-69
2022/12/11 09:54:35;;;;;;;30.92;13.52;;;1.50;99.90;;;;;;5052771;28;20041;-69
2022/12/11 09:57:15;;;;;;;29.77;12.52;;;1.50;99.90;;;;;;5060432;28;20041;-68
2022/12/11 10:00:16;;;;;;;29.13;12.45;;;1.50;99.90;;;;;;5049960;28;20485;-69
2022/12/11 10:02:47;;;;;;;29.80;12.63;;;1.40;99.90;;;;;;5052386;28;20052;-73
2022/12/11 10:05:20;;;;;;;23.87;8.23;;;1.40;99.90;;;;;;5035241;28;20052;-71
2022/12/11 10:08:02;;;;;;;33.90;13.18;;;1.40;99.90;;;;;;5052044;28;20072;-69
2022/12/11 10:11:06;;;;;;;31.80;13.35;;;1.50;99.90;;;;;;5040170;28;20040;-69
2022/12/11 10:13:53;;;;;;;32.75;13.43;;;1.50;99.90;;;;;;5021696;28;20137;-69
2022/12/11 10:16:39;;;;;;;33.78;13.30;;;1.50;99.90;;;;;;5030682;28;20128;-69
2022/12/11 10:19:07;;;;;;;34.28;12.75;;;1.50;99.90;;;;;;5051947;28;20132;-69
2022/12/11 10:21:39;;;;;;;31.40;13.25;;;1.50;99.90;;;;;;5046253;28;20036;-69
2022/12/11 10:24:15;;;;;;;31.90;13.57;;;1.40;99.90;;;;;;5056466;28;20029;-69
2022/12/11 10:26:41;;;;;;;32.03;12.73;;;1.50;99.90;;;;;;5066420;28;20037;-69
2022/12/11 10:29:14;;;;;;;31.55;13.15;;;1.40;99.90;;;;;;5048063;28;20084;-69
2022/12/11 10:31:49;;;;;;;27.63;12.63;;;1.40;99.90;;;;;;5062482;28;20036;-69
2022/12/11 10:34:36;;;;;;;30.52;12.88;;;1.40;99.90;;;;;;5033500;28;20051;-69
2022/12/11 10:37:02;;;;;;;28.85;12.27;;;1.40;99.90;;;;;;5030677;28;20078;-69
2022/12/11 10:39:27;;;;;;;32.42;13.40;;;1.40;99.90;;;;;;5053058;28;20044;-69
2022/12/11 10:41:54;;;;;;;33.22;13.98;;;1.40;99.90;;;;;;5063266;28;20124;-69
2022/12/11 10:44:24;;;;;;;32.63;14.27;;;1.40;99.90;;;;;;5068698;28;20048;-69
2022/12/11 10:47:04;;;;;;;30.30;12.45;;;1.50;99.90;;;;;;5063726;28;20083;-69
2022/12/11 10:49:33;;;;;;;29.50;13.25;;;1.40;99.90;;;;;;5063881;28;20059;-69
2022/12/11 10:52:00;;;;;;;29.02;13.02;;;1.50;99.90;;;;;;5047773;28;20029;-69
2022/12/11 10:54:37;;;;;;;31.50;13.20;;;1.40;99.90;;;;;;5047781;28;20044;-69
2022/12/11 10:57:04;;;;;;;32.17;12.73;;;1.40;99.90;;;;;;5051895;28;20045;-69
2022/12/11 10:59:46;;;;;;;29.83;12.73;;;1.40;99.90;;;;;;5051278;28;20037;-69
2022/12/11 11:02:25;;;;;;;29.92;12.20;;;1.40;99.90;;;;;;5067755;28;20546;-69
2022/12/11 11:04:52;;;;;;;33.83;13.23;;;1.50;99.90;;;;;;5070992;28;20053;-69
2022/12/11 11:07:17;;;;;;;28.23;12.30;;;1.50;99.90;;;;;;5065287;28;20032;-79
2022/12/11 11:09:43;;;;;;;31.60;11.73;;;1.50;99.90;;;;;;5039625;28;20045;-79
2022/12/11 11:12:23;;;;;;;32.63;12.88;;;1.70;99.90;;;;;;5036158;28;20041;-69
2022/12/11 11:15:11;;;;;;;32.92;13.85;;;1.60;99.90;;;;;;5026536;28;20040;-69
2022/12/11 11:17:47;;;;;;;31.23;12.38;;;1.60;99.90;;;;;;5073692;28;20366;-69
2022/12/11 11:20:16;;;;;;;31.27;13.35;;;1.60;99.90;;;;;;5050540;28;20123;-69
2022/12/11 11:22:49;;;;;;;31.20;12.68;;;1.60;99.90;;;;;;5087560;28;20408;-69
2022/12/11 11:25:21;;;;;;;;;;;1.60;99.90;;;;;;5069533;28;20040;-69
2022/12/11 11:27:57;;;;;;;31.83;12.63;;;1.60;99.90;;;;;;5041206;28;19940;-69
2022/12/11 11:30:24;;;;;;;29.88;13.10;;;1.60;99.90;;;;;;5051415;28;20041;-70
2022/12/11 11:32:53;;;;;;;35.13;13.57;;;1.60;99.90;;;;;;5051896;28;20090;-69
2022/12/11 11:35:22;;;;;;;30.13;12.55;;;1.60;99.90;;;;;;5065846;28;20036;-69
2022/12/11 11:38:16;;;;;;;31.70;13.27;;;1.60;99.90;;;;;;5057000;28;20055;-69
2022/12/11 11:40:54;;;;;;;31.45;13.77;;;1.60;99.90;;;;;;5075902;28;20055;-69
2022/12/11 11:43:33;;;;;;;32.13;13.70;;;1.60;99.90;;;;;;5049698;28;20037;-70
2022/12/11 11:46:18;;;;;;;31.23;13.13;;;1.60;99.90;;;;;;5033970;28;20042;-69
2022/12/11 11:48:47;;;;;;;33.63;14.20;;;1.60;99.90;;;;;;5029585;28;20060;-69
2022/12/11 11:51:25;;;;;;;34.33;15.38;;;1.60;99.90;;;;;;5038706;28;20512;-69
2022/12/11 11:53:55;;;;;;;31.75;14.30;;;1.60;99.90;;;;;;5036529;28;20045;-69
2022/12/11 11:56:35;;;;;;;30.55;13.13;;;1.50;99.90;;;;;;5052738;28;20539;-70
2022/12/11 11:59:15;;;;;;;34.20;13.43;;;1.60;99.90;;;;;;5064398;28;20071;-70
2022/12/11 12:01:42;;;;;;;31.52;14.07;;;1.60;99.90;;;;;;5054875;28;20101;-70
2022/12/11 12:04:08;;;;;;;35.33;13.93;;;1.60;99.90;;;;;;5058385;28;20045;-70
2022/12/11 12:06:53;;;;;;;33.45;13.80;;;1.60;99.90;;;;;;5054366;28;20036;-70
2022/12/11 12:09:40;;;;;;;32.03;13.02;;;1.60;99.90;;;;;;5048666;28;20032;-69
2022/12/11 12:12:35;;;;;;;26.95;12.32;;;1.70;99.90;;;;;;5068232;28;20408;-69
2022/12/11 12:15:27;;;;;;;31.77;13.05;;;1.60;99.90;;;;;;5029321;28;20501;-69
2022/12/11 12:18:05;;;;;;;34.05;13.13;;;1.60;99.90;;;;;;5048684;28;20032;-69
2022/12/11 12:20:44;;;;;;;33.30;13.70;;;1.60;99.90;;;;;;5070029;28;20044;-69
2022/12/11 12:23:31;;;;;;;32.50;13.13;;;1.60;99.90;;;;;;5043595;28;20037;-69
2022/12/11 12:26:20;;;;;;;34.03;12.05;;;1.60;99.90;;;;;;5046964;28;20096;-78
2022/12/11 12:29:22;;;;;;;32.97;14.55;;;1.60;99.90;;;;;;5037695;28;20477;-69
2022/12/11 12:32:08;;;;;;;32.93;13.33;;;1.70;99.90;;;;;;5042736;28;20045;-69
2022/12/11 12:35:07;;;;;;;30.88;13.57;;;1.70;99.90;;;;;;5045673;28;20328;-69
2022/12/11 12:37:59;;;;;;;32.38;14.52;;;1.70;99.90;;;;;;5055125;28;20041;-69
2022/12/11 12:40:30;;;;;;;30.95;14.60;;;1.70;99.90;;;;;;5065200;28;20133;-69
2022/12/11 12:43:05;;;;;;;35.22;13.80;;;1.80;99.90;;;;;;5073210;28;20037;-69
2022/12/11 12:45:59;;;;;;;29.60;13.50;;;1.80;99.90;;;;;;5073323;28;20044;-69
2022/12/11 12:48:27;;;;;;;36.22;14.98;;;1.70;99.90;;;;;;5059501;28;20041;-69
2022/12/11 12:50:54;;;;;;;37.72;14.57;;;1.70;99.90;;;;;;5063437;28;20051;-69
2022/12/11 12:53:25;;;;;;;30.80;13.73;;;1.70;99.90;;;;;;5074202;28;20040;-69
2022/12/11 12:55:52;;;;;;;30.85;14.07;;;1.80;99.90;;;;;;5050589;28;20047;-69
2022/12/11 12:58:32;;;;;;;34.20;14.10;;;1.80;99.90;;;;;;5052427;28;20052;-70
2022/12/11 13:01:20;;;;;;;36.08;14.93;;;1.70;99.90;;;;;;5073699;28;20037;-70
2022/12/11 13:03:52;;;;;;;32.97;13.57;;;1.70;99.90;;;;;;5070088;28;20062;-70
2022/12/11 13:06:41;;;;;;;36.28;15.32;;;1.80;99.90;;;;;;5069189;28;20052;-70